Terminal Aerodrome Forecast
Issued by NWS Wichita, KS

Home | Current Version | Previous Version | Graphics & Text | Print | Product List | Glossary On
Versions: 1 2 3 4 5 6 7 8 9 10 11 12
000
FTUS43 KICT 081140
TAFICT
TAF
KICT 081140Z 0812/0912 22009KT P6SM BKN080
     FM081700 35013KT P6SM OVC050
     FM082100 33017G26KT P6SM OVC035
     FM082300 32007KT P6SM BKN035=

USA.gov is the U.S. government's official web portal to all federal, state and local government web resources and services.